Hushitai, China
Current Conditions -  °F | °C
As of 9:00 PM on Saturday 25 Oct 2014 (Local Time) from ZYTX Reporting Station
Haze Haze  
Wind Chill: 61°   Ceiling: 3300
Heat Index: 61°   Visibility: 2.5mi
Dew Point: 54°   Wind: 4mph
Humidity: 77%   Direction: 160°SSE
Pressure: 29.85"   Gusts: NA
Location:  41.95°N, 123.51°E
Report Text: ZYTX 251300Z 16002MPS 4000 BR OVC033 16/12 Q1011 NOSIG
Loading
Personal Weather Stations






























Interactive Weather Map
Tropical Storm Tracking
New forecast layout! Learn more

10-Day Weather Forecast

Advertisements
Track Severe Weather on mobile